Kelowna Airport
CYLW : rendu visible

Aérodrome :











RETROUVEZ-NOUS SUR...

 
LOGIN :

S'inscrire | Disclaimer

   EN    FR    IT 

 









Légende :    VFR   VFR Marginal   IFR   IFR Intensif   IFR Très Intensif
Visi : 
Plafond : 
>= 8 km
>= 3000ft
5 à 8 km
1000 à 3000 ft
1500m à 5 km
500 à 1000 ft
800 à 1500m
200 à 500 ft
< 800m
< 200 ft
Symboles :   Orages  Brouillard  Fortes neiges  Fortes précipitations  Vent > 20 kt






- Altitude de l'aérodrome : 1409 ft
- Code IATA : YLW


CYLW - Kelowna

DERNIER METAR :
  • 171200Z AUTO VRB02KT 9SM FEW036 BKN050 OVC060 05/04 A3002 RMK SLP180

METARs EXPIRÉS :
  • 171100Z AUTO VRB02KT 9SM BKN036 OVC055 05/04 A3005 RMK SLP192
  • 171000Z AUTO 23004KT 9SM BKN036 OVC060 05/04 A3006 RMK SLP194

TAF TAF CYLW
Valide du 17 à 07h jusqu'au 17 à 19h UTC


170638Z 1707/1719 VRB03KT P6SM SCT030 BKN060
TEMPO 1707/1717 P6SM -SHRA BKN020 OVC060
FM171700 18005KT P6SM BKN040
TEMPO 1717/1719 SCT040 RMK FCST BASED ON AUTO OBS. NXT FCST BY 171300Z



MET'MAP, la Météo Aéronautique d'un coup d'oeil ! - Copyright ORBIFLY Décembre 2007 - Disclaimer

ORBIFLY MET'MAP TEAM :

Programmation & Développement : Alexandra Zaïnal
Conception & Développement : Baudouin d'Aumeries
Co-Programmation & Développement : Marc-Olivier Méhu
Soutien technique & logistique : Manuel Goepfert

Contact : metmap@orbifly.com




SOURCES & CREDITS :

   NOAA       Earth
Advisory